createdAt,value
2018-07-22T00:03:23.364Z,6.60
2018-07-22T00:07:27.702Z,6.10
2018-07-22T00:11:31.889Z,6.80
2018-07-22T00:15:36.160Z,6.17
2018-07-22T00:19:40.392Z,5.80
2018-07-22T00:23:44.652Z,6.70
2018-07-22T00:27:49.044Z,5.83
2018-07-22T00:31:53.262Z,5.40
2018-07-22T00:35:57.496Z,4.30
2018-07-22T00:40:01.819Z,5.97
2018-07-22T00:44:06.030Z,6.10
2018-07-22T00:48:10.387Z,5.80
2018-07-22T00:52:14.822Z,6.40
2018-07-22T00:56:19.040Z,6.30
2018-07-22T01:00:23.385Z,6.40
2018-07-22T01:04:27.543Z,5.33
2018-07-22T01:08:31.744Z,5.03
2018-07-22T01:12:36.229Z,6.87
2018-07-22T01:16:40.408Z,6.83
2018-07-22T01:20:44.689Z,6.70
2018-07-22T01:24:49.260Z,6.07
2018-07-22T01:28:53.439Z,6.10
2018-07-22T01:32:57.739Z,6.00
2018-07-22T01:37:01.904Z,6.40
2018-07-22T01:41:06.183Z,7.43
2018-07-22T01:45:10.712Z,6.60
2018-07-22T01:49:15.004Z,5.03
2018-07-22T01:53:19.155Z,5.43
2018-07-22T01:57:23.594Z,5.90
2018-07-22T02:01:27.784Z,5.93
2018-07-22T02:05:32.360Z,6.63
2018-07-22T02:09:36.676Z,5.83
2018-07-22T02:13:40.872Z,5.93
2018-07-22T02:17:45.215Z,6.03
2018-07-22T02:21:49.401Z,5.60
2018-07-22T02:25:53.615Z,5.50
2018-07-22T02:30:02.786Z,5.17
2018-07-22T02:34:07.220Z,5.70
2018-07-22T02:38:11.535Z,5.80
2018-07-22T02:42:15.764Z,6.77
2018-07-22T02:46:20.102Z,5.67
2018-07-22T02:50:24.407Z,5.80
2018-07-22T02:54:28.705Z,6.60
2018-07-22T02:58:32.948Z,6.23
2018-07-22T03:02:37.131Z,6.63
2018-07-22T03:06:41.325Z,6.10
2018-07-22T03:10:45.623Z,5.73
2018-07-22T03:14:49.809Z,6.97
2018-07-22T03:18:54.168Z,6.13
2018-07-22T03:22:58.511Z,8.70
2018-07-22T03:27:02.726Z,6.87
2018-07-22T03:31:06.984Z,7.10
2018-07-22T03:35:11.277Z,8.00
2018-07-22T03:39:15.527Z,7.90
2018-07-22T03:43:19.755Z,6.13
2018-07-22T03:47:24.059Z,7.20
2018-07-22T03:51:28.263Z,7.97
2018-07-22T03:55:32.532Z,6.33
2018-07-22T03:59:36.752Z,7.20
2018-07-22T04:03:40.958Z,6.77
2018-07-22T04:07:45.236Z,6.60
2018-07-22T04:11:49.395Z,7.10
2018-07-22T04:15:53.730Z,6.10
2018-07-22T04:19:58.097Z,7.50
2018-07-22T04:24:02.280Z,6.67
2018-07-22T04:28:06.746Z,6.97
2018-07-22T04:32:10.972Z,7.40
2018-07-22T04:36:15.241Z,7.60
2018-07-22T04:40:19.565Z,8.23
2018-07-22T04:44:23.765Z,7.80
2018-07-22T04:48:27.943Z,6.57
2018-07-22T04:52:32.333Z,7.53
2018-07-22T04:56:36.728Z,7.10
2018-07-22T05:00:41.066Z,6.93
2018-07-22T05:04:45.462Z,7.27
2018-07-22T05:08:49.673Z,7.10
2018-07-22T05:12:54.256Z,6.80
2018-07-22T05:16:58.485Z,6.23
2018-07-22T05:21:02.681Z,6.33
2018-07-22T05:25:07.110Z,6.17
2018-07-22T05:29:11.352Z,6.33
2018-07-22T05:33:15.595Z,6.57
2018-07-22T05:37:19.824Z,5.30
2018-07-22T05:41:24.088Z,5.33
2018-07-22T05:45:28.430Z,5.53
2018-07-22T05:49:32.634Z,4.33
2018-07-22T05:53:37.016Z,5.13
2018-07-22T05:57:41.217Z,4.57
2018-07-22T06:01:45.391Z,4.73
2018-07-22T06:05:49.939Z,6.67
2018-07-22T06:09:54.170Z,5.00
2018-07-22T06:13:58.368Z,5.30
2018-07-22T06:18:02.914Z,5.63
2018-07-22T06:22:07.487Z,5.43
2018-07-22T06:26:12.231Z,5.97
2018-07-22T06:30:16.859Z,7.17
2018-07-22T06:34:21.386Z,6.17
2018-07-22T06:38:25.992Z,7.30
2018-07-22T06:42:30.615Z,6.90
2018-07-22T06:46:35.461Z,6.60
2018-07-22T06:50:40.093Z,7.73
2018-07-22T06:54:44.667Z,7.00
2018-07-22T06:58:49.431Z,7.40
2018-07-22T07:02:53.982Z,7.07
2018-07-22T07:06:58.668Z,7.57
2018-07-22T07:11:03.242Z,7.87
2018-07-22T07:15:08.200Z,7.50
2018-07-22T07:19:12.793Z,6.83
2018-07-22T07:23:17.410Z,7.50
2018-07-22T07:27:22.373Z,7.40
2018-07-22T07:31:27.060Z,6.00
2018-07-22T07:35:31.571Z,6.43
2018-07-22T07:39:36.186Z,6.37
2018-07-22T07:43:41.278Z,5.00
2018-07-22T07:47:45.867Z,4.87
2018-07-22T07:51:50.424Z,5.30
2018-07-22T07:55:55.155Z,4.93
2018-07-22T07:59:59.989Z,5.27
2018-07-22T08:04:04.646Z,5.20
2018-07-22T08:08:09.224Z,5.70
2018-07-22T08:12:13.911Z,4.50
2018-07-22T08:16:18.571Z,6.00
2018-07-22T08:20:23.220Z,5.70
2018-07-22T08:24:27.996Z,5.83
2018-07-22T08:29:46.413Z,4.60
2018-07-22T08:33:50.939Z,5.10
2018-07-22T08:37:55.529Z,5.00
2018-07-22T08:42:00.529Z,3.37
2018-07-22T08:46:05.063Z,3.37
2018-07-22T08:50:09.660Z,3.40
2018-07-22T08:54:14.692Z,2.73
2018-07-22T08:58:19.622Z,2.93
2018-07-22T09:02:24.491Z,3.00
2018-07-22T09:06:29.838Z,3.00
2018-07-22T09:10:34.655Z,2.93
2018-07-22T09:14:39.537Z,3.47
2018-07-22T09:18:44.350Z,3.30
2018-07-22T09:22:48.963Z,3.03
2018-07-22T09:26:53.517Z,3.30
2018-07-22T09:30:58.234Z,2.67
2018-07-22T09:35:02.962Z,3.03
2018-07-22T09:39:10.510Z,2.63
2018-07-22T09:43:15.250Z,3.15
2018-07-22T09:47:19.808Z,2.90
2018-07-22T09:51:24.260Z,2.77
2018-07-22T09:55:28.977Z,2.47
2018-07-22T09:59:33.680Z,2.00
2018-07-22T10:03:38.287Z,2.10
2018-07-22T10:07:42.963Z,2.20
2018-07-22T10:11:47.979Z,2.27
2018-07-22T10:15:52.952Z,2.43
2018-07-22T10:19:58.023Z,2.37
2018-07-22T10:24:02.631Z,2.00
2018-07-22T10:28:08.264Z,2.50
2018-07-22T10:32:13.617Z,2.20
2018-07-22T10:36:18.370Z,2.07
2018-07-22T10:40:23.298Z,1.77
2018-07-22T10:44:27.797Z,1.83
2018-07-22T10:48:32.607Z,1.80
2018-07-22T10:52:37.371Z,2.20
2018-07-22T10:56:42.026Z,1.90
2018-07-22T11:00:47.072Z,1.70
2018-07-22T11:04:51.761Z,1.93
2018-07-22T11:08:56.827Z,1.87
2018-07-22T11:13:01.560Z,1.80
2018-07-22T11:17:06.374Z,2.07
2018-07-22T11:21:11.694Z,2.13
2018-07-22T11:25:16.402Z,2.30
2018-07-22T11:29:21.351Z,2.30
2018-07-22T11:33:26.056Z,2.50
2018-07-22T11:37:30.864Z,2.00
2018-07-22T11:41:35.827Z,2.13
2018-07-22T11:45:40.454Z,2.20
2018-07-22T11:49:51.061Z,2.50
2018-07-22T11:53:55.991Z,2.23
2018-07-22T11:58:00.633Z,2.10
2018-07-22T12:02:05.345Z,2.47
2018-07-22T12:06:09.978Z,2.10
2018-07-22T12:10:14.691Z,2.30
2018-07-22T12:14:19.622Z,1.93
2018-07-22T12:18:24.495Z,1.90
2018-07-22T12:22:29.196Z,2.10
2018-07-22T12:26:33.847Z,2.20
2018-07-22T12:30:41.913Z,2.07
2018-07-22T12:34:46.912Z,1.63
2018-07-22T12:38:51.463Z,1.73
2018-07-22T12:42:56.167Z,1.87
2018-07-22T12:47:01.562Z,2.10
2018-07-22T12:51:06.385Z,2.10
2018-07-22T12:55:11.122Z,1.93
2018-07-22T12:59:15.638Z,2.30
2018-07-22T13:03:20.279Z,2.00
2018-07-22T13:07:24.571Z,2.37
2018-07-22T13:11:29.185Z,1.90
2018-07-22T13:15:33.539Z,2.30
2018-07-22T13:19:38.197Z,2.00
2018-07-22T13:23:42.473Z,2.03
2018-07-22T13:27:47.174Z,2.60
2018-07-22T13:31:51.467Z,2.00
2018-07-22T13:39:57.609Z,2.60
2018-07-22T13:44:01.819Z,2.77
2018-07-22T13:48:06.325Z,1.90
2018-07-22T13:52:10.805Z,3.10
2018-07-22T13:56:15.164Z,2.47
2018-07-22T14:00:19.401Z,2.60
2018-07-22T14:04:23.682Z,2.70
2018-07-22T14:08:27.926Z,2.53
2018-07-22T14:12:32.104Z,1.50
2018-07-22T14:16:36.737Z,1.90
2018-07-22T14:20:41.153Z,1.82
2018-07-22T14:24:45.382Z,2.10
2018-07-22T14:28:49.688Z,1.60
2018-07-22T14:32:53.964Z,1.47
2018-07-22T14:36:58.478Z,1.90
2018-07-22T14:41:02.838Z,1.60
2018-07-22T14:45:07.832Z,1.83
2018-07-22T14:49:13.876Z,1.60
2018-07-22T14:53:18.276Z,1.50
2018-07-22T14:57:22.540Z,2.20
2018-07-22T15:01:26.875Z,2.17
2018-07-22T15:05:31.097Z,1.67
2018-07-22T15:09:35.656Z,2.40
2018-07-22T15:13:39.917Z,2.00
2018-07-22T15:17:44.188Z,2.10
2018-07-22T15:21:48.782Z,2.13
2018-07-22T15:25:53.078Z,2.60
2018-07-22T15:29:57.286Z,2.40
2018-07-22T15:34:01.610Z,2.13
2018-07-22T15:38:05.850Z,3.40
2018-07-22T15:42:10.426Z,3.03
2018-07-22T15:46:14.736Z,3.67
2018-07-22T15:50:18.960Z,3.50
2018-07-22T15:54:23.274Z,4.40
2018-07-22T15:58:27.733Z,3.50
2018-07-22T16:02:32.249Z,4.60
2018-07-22T16:06:36.528Z,3.90
2018-07-22T16:10:41.277Z,4.10
2018-07-22T16:14:46.353Z,4.40
2018-07-22T16:18:50.573Z,4.50
2018-07-22T16:22:54.880Z,4.40
2018-07-22T16:26:59.231Z,3.97
2018-07-22T16:31:03.635Z,4.50
2018-07-22T16:35:07.866Z,3.60
2018-07-22T16:39:12.235Z,3.70
2018-07-22T16:43:16.806Z,4.40
2018-07-22T16:47:21.097Z,4.50
2018-07-22T16:51:25.638Z,3.80
2018-07-22T16:55:29.975Z,3.60
2018-07-22T16:59:34.151Z,3.10
2018-07-22T17:03:38.511Z,3.90
2018-07-22T17:07:42.843Z,3.33
2018-07-22T17:11:47.100Z,3.43
2018-07-22T17:15:51.327Z,3.90
2018-07-22T17:19:55.595Z,3.63
2018-07-22T17:23:59.860Z,3.57
2018-07-22T17:28:04.194Z,3.20
2018-07-22T17:32:08.650Z,3.43
2018-07-22T17:36:12.940Z,3.50
2018-07-22T17:40:17.370Z,3.57
2018-07-22T17:44:21.955Z,3.87
2018-07-22T17:48:27.008Z,3.77
2018-07-22T17:52:32.257Z,2.93
2018-07-22T17:56:37.443Z,3.93
2018-07-22T18:00:42.256Z,3.20
2018-07-22T18:04:48.160Z,3.97
2018-07-22T18:08:52.981Z,3.07
2018-07-22T18:12:59.002Z,3.50
2018-07-22T18:17:04.675Z,3.77
2018-07-22T18:21:10.134Z,3.77
2018-07-22T18:25:15.536Z,4.20
2018-07-22T18:29:20.847Z,4.23
2018-07-22T18:33:26.878Z,4.80
2018-07-22T18:37:32.676Z,4.60
2018-07-22T18:41:38.138Z,4.63
2018-07-22T18:45:43.833Z,3.77
2018-07-22T18:49:49.296Z,4.20
2018-07-22T18:53:55.428Z,5.07
2018-07-22T18:58:02.592Z,4.07
2018-07-22T19:02:08.711Z,3.83
2018-07-22T19:06:14.948Z,4.50
2018-07-22T19:10:20.496Z,4.10
2018-07-22T19:14:26.629Z,4.60
2018-07-22T19:18:32.131Z,4.80
2018-07-22T19:22:36.789Z,4.70
2018-07-22T19:26:41.835Z,4.60
2018-07-22T19:30:47.803Z,4.30
2018-07-22T19:34:53.167Z,4.60
2018-07-22T19:39:00.613Z,4.60
2018-07-22T19:43:08.476Z,4.10
2018-07-22T19:47:15.009Z,4.63
2018-07-22T19:51:20.687Z,4.10
2018-07-22T19:55:27.462Z,3.57
2018-07-22T19:59:33.632Z,3.83
2018-07-22T20:03:39.379Z,4.47
2018-07-22T20:07:44.329Z,3.90
2018-07-22T20:11:48.893Z,4.10
2018-07-22T20:15:54.370Z,4.40
2018-07-22T20:19:59.643Z,4.90
2018-07-22T20:24:05.105Z,4.40
2018-07-22T20:28:09.863Z,4.57
2018-07-22T20:32:15.656Z,4.50
2018-07-22T20:36:20.402Z,5.07
2018-07-22T20:40:24.825Z,5.03
2018-07-22T20:44:29.529Z,4.67
2018-07-22T20:48:34.346Z,5.40
2018-07-22T20:52:38.559Z,5.30
2018-07-22T20:56:43.369Z,4.23
2018-07-22T21:00:49.049Z,4.57
2018-07-22T21:04:53.518Z,4.73
2018-07-22T21:08:58.753Z,4.63
2018-07-22T21:13:16.408Z,4.97
2018-07-22T21:17:21.424Z,5.00
2018-07-22T21:21:26.618Z,5.10
2018-07-22T21:25:31.433Z,4.83
2018-07-22T21:29:36.528Z,4.47
2018-07-22T21:33:40.916Z,5.10
2018-07-22T21:37:45.121Z,5.80
2018-07-22T21:41:49.473Z,4.83
2018-07-22T21:45:53.692Z,4.87
2018-07-22T21:49:57.899Z,4.70
2018-07-22T21:54:02.390Z,5.30
2018-07-22T21:58:06.593Z,5.13
2018-07-22T22:02:10.776Z,5.17
2018-07-22T22:06:15.117Z,5.83
2018-07-22T22:10:19.408Z,5.37
2018-07-22T22:14:23.651Z,6.50
2018-07-22T22:18:27.957Z,5.50
2018-07-22T22:22:32.156Z,5.97
2018-07-22T22:26:36.333Z,6.10
2018-07-22T22:30:40.645Z,5.97
2018-07-22T22:34:44.835Z,6.93
2018-07-22T22:38:49.189Z,5.73
2018-07-22T22:42:53.584Z,9.10
2018-07-22T22:46:57.868Z,7.90
2018-07-22T22:51:02.238Z,7.63
2018-07-22T22:55:06.513Z,8.40
2018-07-22T22:59:20.221Z,8.50
2018-07-22T23:03:24.399Z,8.40
2018-07-22T23:07:28.680Z,8.23
2018-07-22T23:11:33.038Z,9.53
2018-07-22T23:15:37.355Z,9.50
2018-07-22T23:19:41.550Z,10.20
2018-07-22T23:23:45.840Z,9.97
2018-07-22T23:27:50.045Z,8.83
2018-07-22T23:31:54.341Z,9.70
2018-07-22T23:35:58.573Z,9.47
2018-07-22T23:40:02.792Z,11.53
2018-07-22T23:44:07.438Z,10.67
2018-07-22T23:48:11.697Z,10.50
2018-07-22T23:52:15.905Z,10.27
2018-07-22T23:56:20.319Z,10.10
